createdAt,value
2018-11-28T00:00:15.530Z,42.48
2018-11-28T00:02:43.944Z,41.42
2018-11-28T00:05:12.870Z,45.05
2018-11-28T00:07:41.885Z,45.85
2018-11-28T00:10:11.683Z,45.25
2018-11-28T00:12:40.496Z,40.05
2018-11-28T00:15:11.265Z,42.95
2018-11-28T00:17:39.758Z,44.75
2018-11-28T00:20:09.966Z,37.60
2018-11-28T00:22:38.434Z,38.55
2018-11-28T00:25:07.773Z,38.95
2018-11-28T00:27:36.187Z,43.25
2018-11-28T00:30:06.775Z,41.83
2018-11-28T00:32:35.183Z,40.70
2018-11-28T00:35:03.603Z,49.40
2018-11-28T00:37:32.188Z,46.60
2018-11-28T00:40:00.540Z,50.50
2018-11-28T00:42:29.950Z,40.67
2018-11-28T00:44:58.881Z,51.37
2018-11-28T00:47:27.340Z,51.83
2018-11-28T00:49:55.725Z,49.38
2018-11-28T00:52:24.110Z,47.58
2018-11-28T00:54:52.542Z,45.23
2018-11-28T00:57:20.911Z,48.70
2018-11-28T00:59:49.294Z,42.30
2018-11-28T01:02:17.699Z,45.15
2018-11-28T01:04:46.115Z,48.02
2018-11-28T01:07:14.495Z,48.33
2018-11-28T01:09:42.908Z,47.27
2018-11-28T01:12:11.307Z,45.30
2018-11-28T01:14:39.699Z,47.40
2018-11-28T01:17:08.118Z,50.48
2018-11-28T01:19:36.525Z,40.38
2018-11-28T01:22:05.102Z,48.68
2018-11-28T01:24:33.474Z,50.10
2018-11-28T01:27:01.915Z,51.08
2018-11-28T01:29:30.290Z,45.58
2018-11-28T01:31:58.692Z,50.80
2018-11-28T01:34:27.095Z,49.75
2018-11-28T01:36:55.506Z,51.23
2018-11-28T01:39:23.906Z,50.45
2018-11-28T01:41:52.322Z,47.98
2018-11-28T01:44:20.747Z,51.33
2018-11-28T01:46:49.171Z,49.90
2018-11-28T01:49:17.622Z,48.08
2018-11-28T01:51:46.017Z,48.58
2018-11-28T01:54:14.405Z,52.25
2018-11-28T01:56:42.887Z,52.23
2018-11-28T01:59:11.324Z,47.75
2018-11-28T02:01:39.698Z,42.38
2018-11-28T02:04:08.177Z,41.33
2018-11-28T02:06:36.634Z,45.25
2018-11-28T02:09:08.093Z,42.83
2018-11-28T02:11:36.493Z,44.60
2018-11-28T02:14:04.927Z,43.87
2018-11-28T02:16:33.314Z,41.15
2018-11-28T02:19:01.852Z,48.23
2018-11-28T02:21:30.343Z,46.05
2018-11-28T02:23:58.718Z,38.60
2018-11-28T02:26:27.126Z,48.50
2018-11-28T02:28:55.570Z,48.15
2018-11-28T02:31:23.938Z,45.98
2018-11-28T02:33:52.682Z,41.85
2018-11-28T02:36:21.077Z,45.35
2018-11-28T02:38:49.436Z,42.43
2018-11-28T02:41:17.841Z,40.30
2018-11-28T02:43:46.261Z,42.10
2018-11-28T02:46:27.833Z,40.85
2018-11-28T02:48:56.594Z,44.88
2018-11-28T02:51:25.061Z,42.95
2018-11-28T02:53:53.582Z,49.00
2018-11-28T02:56:21.977Z,50.10
2018-11-28T02:58:50.398Z,54.40
2018-11-28T03:01:18.831Z,39.05
2018-11-28T03:03:47.285Z,48.08
2018-11-28T03:06:15.683Z,42.10
2018-11-28T03:08:44.140Z,42.03
2018-11-28T03:11:12.507Z,39.40
2018-11-28T03:13:40.916Z,45.03
2018-11-28T03:16:19.890Z,45.48
2018-11-28T03:18:48.506Z,46.55
2018-11-28T03:21:16.926Z,52.08
2018-11-28T03:23:45.386Z,43.58
2018-11-28T03:26:13.790Z,45.98
2018-11-28T03:28:42.199Z,46.80
2018-11-28T03:31:10.604Z,47.60
2018-11-28T03:33:38.986Z,47.60
2018-11-28T03:36:07.400Z,44.40
2018-11-28T03:38:35.781Z,39.67
2018-11-28T03:41:04.245Z,45.00
2018-11-28T03:43:32.636Z,49.58
2018-11-28T03:46:01.060Z,48.60
2018-11-28T03:48:29.422Z,43.55
2018-11-28T03:50:57.831Z,41.75
2018-11-28T03:53:26.214Z,45.15
2018-11-28T03:55:54.727Z,44.53
2018-11-28T03:58:23.116Z,46.25
2018-11-28T04:00:51.547Z,41.63
2018-11-28T04:03:19.962Z,46.33
2018-11-28T04:05:48.359Z,47.15
2018-11-28T04:08:16.789Z,51.50
2018-11-28T04:10:45.165Z,47.38
2018-11-28T04:13:13.595Z,50.30
2018-11-28T04:15:41.984Z,40.50
2018-11-28T04:18:10.386Z,48.30
2018-11-28T04:20:38.762Z,40.17
2018-11-28T04:23:07.167Z,46.18
2018-11-28T04:25:35.690Z,43.65
2018-11-28T04:28:04.112Z,53.28
2018-11-28T04:30:32.534Z,57.78
2018-11-28T04:33:01.030Z,40.98
2018-11-28T04:35:29.459Z,42.35
2018-11-28T04:37:57.842Z,51.23
2018-11-28T04:40:26.285Z,45.60
2018-11-28T04:42:54.646Z,45.52
2018-11-28T04:45:25.261Z,59.65
2018-11-28T04:47:54.723Z,48.38
2018-11-28T04:50:23.154Z,48.00
2018-11-28T04:52:51.538Z,50.55
2018-11-28T04:55:20.588Z,47.65
2018-11-28T04:57:49.148Z,39.90
2018-11-28T05:00:19.698Z,46.60
2018-11-28T05:02:48.503Z,45.43
2018-11-28T05:05:17.006Z,44.90
2018-11-28T05:07:46.235Z,43.13
2018-11-28T05:10:25.236Z,42.08
2018-11-28T05:12:54.377Z,47.58
2018-11-28T05:15:24.092Z,45.15
2018-11-28T05:17:53.497Z,43.42
2018-11-28T05:20:26.362Z,42.17
2018-11-28T05:22:54.844Z,39.35
2018-11-28T05:25:28.154Z,47.58
2018-11-28T05:27:57.516Z,44.98
2018-11-28T05:30:27.089Z,46.80
2018-11-28T05:32:55.474Z,44.27
2018-11-28T05:35:29.639Z,47.35
2018-11-28T05:37:58.049Z,38.98
2018-11-28T05:40:27.445Z,42.05
2018-11-28T05:42:56.110Z,43.55
2018-11-28T05:45:24.562Z,37.75
2018-11-28T05:47:53.016Z,43.52
2018-11-28T05:50:22.377Z,42.88
2018-11-28T05:52:51.070Z,46.55
2018-11-28T05:55:20.616Z,44.38
2018-11-28T05:57:49.087Z,37.58
2018-11-28T06:00:25.241Z,43.73
2018-11-28T06:02:53.730Z,41.98
2018-11-28T06:05:22.200Z,37.08
2018-11-28T06:07:50.587Z,40.20
2018-11-28T06:10:18.976Z,45.52
2018-11-28T06:12:47.408Z,39.42
2018-11-28T06:15:15.794Z,43.23
2018-11-28T06:17:44.223Z,38.42
2018-11-28T06:20:13.869Z,41.13
2018-11-28T06:22:42.349Z,39.48
2018-11-28T06:25:16.080Z,36.25
2018-11-28T06:27:42.099Z,42.15
2018-11-28T06:30:12.148Z,39.92
2018-11-28T06:32:40.570Z,47.53
2018-11-28T06:35:09.781Z,33.63
2018-11-28T06:37:38.782Z,36.30
2018-11-28T06:40:10.467Z,37.75
2018-11-28T06:42:38.981Z,35.90
2018-11-28T06:45:09.906Z,38.30
2018-11-28T06:47:38.277Z,36.85
2018-11-28T06:50:10.996Z,37.25
2018-11-28T06:52:39.400Z,43.45
2018-11-28T06:55:09.844Z,36.30
2018-11-28T06:57:38.270Z,37.65
2018-11-28T07:00:10.903Z,35.90
2018-11-28T07:02:39.278Z,36.08
2018-11-28T07:05:08.150Z,40.60
2018-11-28T07:07:36.551Z,39.73
2018-11-28T07:10:07.339Z,36.08
2018-11-28T07:12:35.721Z,37.73
2018-11-28T07:15:04.490Z,36.98
2018-11-28T07:17:32.914Z,36.30
2018-11-28T07:20:01.282Z,49.40
2018-11-28T07:22:29.831Z,44.33
2018-11-28T07:24:58.209Z,41.18
2018-11-28T07:27:26.783Z,41.55
2018-11-28T07:29:55.279Z,44.73
2018-11-28T07:32:23.737Z,44.98
2018-11-28T07:34:52.160Z,42.35
2018-11-28T07:37:20.564Z,41.42
2018-11-28T07:39:49.023Z,38.80
2018-11-28T07:42:17.664Z,39.53
2018-11-28T07:44:46.126Z,46.35
2018-11-28T07:47:14.555Z,43.55
2018-11-28T07:49:43.005Z,44.27
2018-11-28T07:52:11.414Z,41.08
2018-11-28T07:54:39.803Z,44.55
2018-11-28T07:57:08.217Z,53.02
2018-11-28T07:59:36.631Z,49.20
2018-11-28T08:02:05.345Z,42.90
2018-11-28T08:04:33.722Z,46.37
2018-11-28T08:07:02.130Z,43.58
2018-11-28T08:09:30.531Z,43.78
2018-11-28T08:11:59.080Z,42.95
2018-11-28T08:14:27.523Z,39.40
2018-11-28T08:16:55.955Z,40.83
2018-11-28T08:19:24.353Z,43.48
2018-11-28T08:21:52.743Z,51.55
2018-11-28T08:24:21.165Z,46.48
2018-11-28T08:26:49.601Z,44.35
2018-11-28T08:29:18.024Z,46.18
2018-11-28T08:31:46.501Z,44.23
2018-11-28T08:34:14.938Z,38.85
2018-11-28T08:36:43.361Z,40.98
2018-11-28T08:39:11.782Z,39.67
2018-11-28T08:41:40.214Z,48.02
2018-11-28T08:44:08.656Z,39.35
2018-11-28T08:46:37.057Z,44.88
2018-11-28T08:49:05.663Z,38.73
2018-11-28T08:51:34.106Z,46.08
2018-11-28T08:54:02.569Z,39.23
2018-11-28T08:56:30.937Z,43.85
2018-11-28T08:58:59.333Z,37.58
2018-11-28T09:01:27.742Z,36.98
2018-11-28T09:03:56.153Z,43.68
2018-11-28T09:06:24.549Z,40.78
2018-11-28T09:08:52.966Z,35.10
2018-11-28T09:11:21.346Z,42.08
2018-11-28T09:13:49.754Z,34.38
2018-11-28T09:16:18.150Z,35.68
2018-11-28T09:18:46.601Z,38.48
2018-11-28T09:21:14.992Z,40.35
2018-11-28T09:23:43.372Z,32.70
2018-11-28T09:26:15.978Z,34.55
2018-11-28T09:28:44.378Z,42.00
2018-11-28T09:31:12.766Z,39.25
2018-11-28T09:33:41.451Z,39.20
2018-11-28T09:36:09.833Z,33.85
2018-11-28T09:38:38.253Z,31.27
2018-11-28T09:41:06.938Z,35.15
2018-11-28T09:43:35.318Z,38.78
2018-11-28T09:46:03.740Z,40.85
2018-11-28T09:48:32.093Z,33.75
2018-11-28T09:51:00.523Z,40.38
2018-11-28T09:53:28.906Z,33.48
2018-11-28T09:55:57.322Z,30.48
2018-11-28T09:58:25.720Z,34.60
2018-11-28T10:00:54.143Z,34.03
2018-11-28T10:03:22.524Z,34.25
2018-11-28T10:05:50.977Z,33.20
2018-11-28T10:08:19.393Z,35.45
2018-11-28T10:10:47.822Z,32.20
2018-11-28T10:13:16.275Z,37.20
2018-11-28T10:15:44.775Z,33.23
2018-11-28T10:18:13.175Z,32.67
2018-11-28T10:20:41.566Z,34.58
2018-11-28T10:23:09.946Z,29.75
2018-11-28T10:25:38.355Z,32.58
2018-11-28T10:28:08.101Z,34.00
2018-11-28T10:30:37.593Z,36.28
2018-11-28T10:33:08.433Z,29.80
2018-11-28T10:35:37.691Z,39.90
2018-11-28T10:38:07.131Z,35.52
2018-11-28T10:40:35.893Z,32.38
2018-11-28T10:43:04.471Z,27.60
2018-11-28T10:45:32.873Z,28.55
2018-11-28T10:48:01.313Z,32.42
2018-11-28T10:50:29.729Z,30.43
2018-11-28T10:52:58.149Z,31.07
2018-11-28T10:55:27.056Z,35.55
2018-11-28T10:57:55.501Z,31.60
2018-11-28T11:00:32.405Z,30.40
2018-11-28T11:03:06.365Z,29.07
2018-11-28T11:05:40.112Z,31.82
2018-11-28T11:08:14.237Z,28.00
2018-11-28T11:10:47.927Z,31.42
2018-11-28T11:14:21.591Z,30.92
2018-11-28T11:16:50.038Z,27.37
2018-11-28T11:19:18.474Z,26.23
2018-11-28T11:21:46.878Z,29.07
2018-11-28T11:24:15.370Z,27.00
2018-11-28T11:26:43.816Z,31.37
2018-11-28T11:29:12.226Z,25.77
2018-11-28T11:31:40.638Z,32.93
2018-11-28T11:34:09.075Z,30.65
2018-11-28T11:36:37.518Z,27.73
2018-11-28T11:39:07.700Z,27.30
2018-11-28T11:41:36.105Z,26.12
2018-11-28T11:44:04.491Z,33.08
2018-11-28T11:46:33.069Z,30.60
2018-11-28T11:49:01.761Z,28.83
2018-11-28T11:51:29.977Z,30.62
2018-11-28T11:53:58.358Z,29.87
2018-11-28T11:56:26.761Z,27.65
2018-11-28T11:58:55.181Z,31.87
2018-11-28T12:01:23.676Z,27.80
2018-11-28T12:03:52.112Z,30.35
2018-11-28T12:06:20.538Z,26.80
2018-11-28T12:08:48.922Z,32.58
2018-11-28T12:11:17.350Z,30.00
2018-11-28T12:13:45.775Z,26.82
2018-11-28T12:16:14.170Z,24.63
2018-11-28T12:18:42.605Z,20.50
2018-11-28T12:21:11.014Z,24.15
2018-11-28T12:23:39.576Z,26.65
2018-11-28T12:26:08.009Z,27.20
2018-11-28T12:28:36.441Z,32.23
2018-11-28T12:31:04.933Z,28.95
2018-11-28T12:33:33.362Z,30.65
2018-11-28T12:36:01.801Z,33.20
2018-11-28T12:38:30.213Z,30.72
2018-11-28T12:40:59.129Z,29.67
2018-11-28T12:43:27.564Z,28.25
2018-11-28T12:45:55.973Z,25.62
2018-11-28T12:48:24.378Z,25.72
2018-11-28T12:50:52.781Z,31.77
2018-11-28T12:53:21.202Z,31.65
2018-11-28T12:55:49.583Z,33.60
2018-11-28T12:58:19.409Z,28.80
2018-11-28T13:00:48.142Z,27.75
2018-11-28T13:03:17.918Z,33.35
2018-11-28T13:05:46.343Z,29.05
2018-11-28T13:08:14.759Z,28.50
2018-11-28T13:10:43.357Z,27.15
2018-11-28T13:13:12.207Z,34.88
2018-11-28T13:15:40.761Z,47.27
2018-11-28T13:18:10.218Z,28.02
2018-11-28T13:20:39.544Z,28.52
2018-11-28T13:23:08.880Z,31.30
2018-11-28T13:25:37.357Z,27.77
2018-11-28T13:28:06.103Z,33.90
2018-11-28T13:30:34.530Z,30.12
2018-11-28T13:33:02.930Z,31.37
2018-11-28T13:35:31.349Z,35.17
2018-11-28T13:38:07.961Z,33.05
2018-11-28T13:40:36.366Z,31.17
2018-11-28T13:43:05.131Z,37.05
2018-11-28T13:45:35.054Z,29.23
2018-11-28T13:48:03.515Z,30.25
2018-11-28T13:50:31.985Z,32.13
2018-11-28T13:53:02.331Z,40.52
2018-11-28T13:55:38.480Z,31.57
2018-11-28T13:58:04.625Z,32.25
2018-11-28T14:00:33.066Z,36.35
2018-11-28T14:03:01.471Z,32.48
2018-11-28T14:05:29.875Z,36.65
2018-11-28T14:07:58.338Z,31.25
2018-11-28T14:10:26.817Z,30.80
2018-11-28T14:12:55.237Z,36.15
2018-11-28T14:15:24.058Z,34.20
2018-11-28T14:18:12.957Z,33.95
2018-11-28T14:20:41.390Z,34.67
2018-11-28T14:23:09.834Z,37.10
2018-11-28T14:25:38.266Z,34.83
2018-11-28T14:28:07.245Z,39.60
2018-11-28T14:30:36.501Z,31.57
2018-11-28T14:33:05.094Z,37.75
2018-11-28T14:35:33.674Z,36.93
2018-11-28T14:38:02.091Z,40.55
2018-11-28T14:40:30.514Z,36.35
2018-11-28T14:42:59.800Z,39.70
2018-11-28T14:45:29.165Z,42.48
2018-11-28T14:47:57.621Z,43.08
2018-11-28T14:50:27.183Z,40.55
2018-11-28T14:52:56.953Z,45.15
2018-11-28T14:55:28.445Z,43.85
2018-11-28T14:57:56.896Z,39.18
2018-11-28T15:00:29.371Z,44.48
2018-11-28T15:03:00.197Z,44.35
2018-11-28T15:05:41.599Z,46.30
2018-11-28T15:08:14.258Z,42.25
2018-11-28T15:11:00.988Z,47.00
2018-11-28T15:13:29.450Z,51.30
2018-11-28T15:15:57.955Z,45.67
2018-11-28T15:18:26.348Z,52.55
2018-11-28T15:20:54.754Z,44.90
2018-11-28T15:23:23.342Z,48.35
2018-11-28T15:25:51.802Z,64.05
2018-11-28T15:28:20.181Z,47.58
2018-11-28T15:30:48.715Z,54.58
2018-11-28T15:33:17.122Z,55.52
2018-11-28T15:35:45.547Z,53.15
2018-11-28T15:38:13.940Z,48.85
2018-11-28T15:40:42.366Z,48.60
2018-11-28T15:43:10.780Z,50.60
2018-11-28T15:45:39.262Z,50.73
2018-11-28T15:48:07.806Z,54.38
2018-11-28T15:50:36.300Z,51.13
2018-11-28T15:53:04.774Z,47.05
2018-11-28T15:55:33.226Z,51.90
2018-11-28T15:58:01.628Z,48.75
2018-11-28T16:00:30.042Z,58.30
2018-11-28T16:02:58.541Z,47.03
2018-11-28T16:05:27.009Z,53.83
2018-11-28T16:07:55.429Z,51.37
2018-11-28T16:10:29.186Z,55.20
2018-11-28T16:12:57.626Z,46.83
2018-11-28T16:15:29.908Z,47.67
2018-11-28T16:17:58.540Z,50.85
2018-11-28T16:20:26.939Z,56.73
2018-11-28T16:23:03.953Z,51.40
2018-11-28T16:25:23.810Z,56.33
2018-11-28T16:27:52.318Z,50.80
2018-11-28T16:30:20.770Z,56.83
2018-11-28T16:32:49.198Z,49.38
2018-11-28T16:35:18.012Z,66.55
2018-11-28T16:37:46.425Z,55.05
2018-11-28T16:40:15.634Z,62.03
2018-11-28T16:42:44.107Z,54.63
2018-11-28T16:45:14.034Z,56.60
2018-11-28T16:47:42.546Z,55.70
2018-11-28T16:50:11.949Z,51.55
2018-11-28T16:52:40.353Z,60.85
2018-11-28T16:55:10.278Z,58.40
2018-11-28T16:57:39.682Z,53.20
2018-11-28T17:00:11.435Z,64.27
2018-11-28T17:02:39.981Z,58.38
2018-11-28T17:05:15.626Z,60.65
2018-11-28T17:07:44.214Z,60.05
2018-11-28T17:10:15.505Z,60.90
2018-11-28T17:12:44.582Z,53.15
2018-11-28T17:15:14.090Z,55.65
2018-11-28T17:17:42.886Z,53.78
2018-11-28T17:20:15.462Z,51.63
2018-11-28T17:22:44.026Z,50.10
2018-11-28T17:25:20.308Z,54.38
2018-11-28T17:27:48.750Z,54.90
2018-11-28T17:30:19.091Z,54.63
2018-11-28T17:32:47.047Z,53.63
2018-11-28T17:35:15.425Z,62.05
2018-11-28T17:37:43.890Z,60.30
2018-11-28T17:40:14.843Z,57.20
2018-11-28T17:42:44.197Z,65.42
2018-11-28T17:45:13.639Z,61.58
2018-11-28T17:47:42.169Z,63.55
2018-11-28T17:50:12.402Z,60.92
2018-11-28T17:52:41.314Z,54.25
2018-11-28T17:55:11.998Z,65.52
2018-11-28T17:57:40.470Z,65.30
2018-11-28T18:00:12.526Z,67.55
2018-11-28T18:02:41.295Z,69.50
2018-11-28T18:05:10.648Z,49.05
2018-11-28T18:07:39.257Z,54.45
2018-11-28T18:10:11.522Z,53.68
2018-11-28T18:12:50.276Z,54.25
2018-11-28T18:15:18.863Z,50.83
2018-11-28T18:17:47.347Z,49.75
2018-11-28T18:20:15.734Z,51.50
2018-11-28T18:22:44.252Z,59.30
2018-11-28T18:25:12.807Z,46.77
